SBOSBO DOH / OTHH
Speedbird OnlineSpeedbird Online DOH / OTHH

Hamad International Airport
03:39 18°C

Location Doha, Qatar
Latitude: 25.273056
Longitude: 51.608056
Web Airport Website | Wikipedia
Altitude 4 Meter / 13 Feet
Distance 5,203 KM / 3,233 Miles
from London.
Time Zone UTC +3 hours (Asia/Qatar)
Codes IATA: DOH
ICAO: OTHH
Currency £1 equals QAR 4.41
Runways
RunwayLength (m)Surface
16L4850Asphalt
16R4250Asphalt
34L4250Asphalt
34R4850Asphalt
Radio
TypeDescriptionFrequency
ATIS128.85
D-ATIS126.85
DOHA APP RADAR121.1
HAMAD TERM INFO126.85
HAMAD Tower118.525
Live ATC
METAR OTHH 081400Z AUTO 35018KT CAVOK 22/08 Q1015 NOSIG
TAF TAF OTHH 081115Z 0812/0918 35016KT 8000 NSC TEMPO 0816/0903 35006KT
Weather As Of 09 Feb 2023 03:39
Description Clear sky
Wind 37 km/h from North (340°)
Cloud Cover 0%
Precipitation Rain: none, Snow: none
Sunrise 06:12
Sunset 17:22
Lounges Al Mourjan Business Lounge , HIA
Qatar Airways Gold Lounge - South , Main Terminal
Al Safwa First Lounge , Main Terminal
Oryx Lounge , Main Terminal
Qatar Airways Silver Lounge - South, Main Terminal
Qatar Airways Platinum Lounge - South , Main Terminal
Al Mourjan Business Lounge, Main Terminal
Rotations During the last 90 days there were
85 flights from LGW
82 flights from LHR
84 flights to LGW
82 flights to LHR



Support Speedbird Online

© 2017-2023 Speedbird Online